Time,TemperatureF,DewpointF,PressureIn,WindDirection,WindDirectionDegrees,WindSpeedMPH,WindSpeedGustMPH,Humidity,HourlyPrecipIn,Conditions,Clouds,dailyrainin,SolarRadiationWatts/m^2,SoftwareType,DateUTC
2013-02-16 00:00:00,36.1,34.0,30.06,West,270,4.6,4.6,92,0.00,CLR,,0.00,0.0,WeatherDisplay:10.37,2013-02-15 23:00:00,
2013-02-16 00:06:00,36.0,33.9,30.06,WNW,292,3.5,3.5,92,0.00,CLR,,0.00,0.0,WeatherDisplay:10.37,2013-02-15 23:06:00,
2013-02-16 00:11:00,36.0,33.9,30.03,NNW,338,3.5,3.5,92,0.00,CLR,,0.00,0.0,WeatherDisplay:10.37,2013-02-15 23:11:00,
2013-02-16 00:16:00,36.0,34.1,30.03,WNW,292,2.3,2.3,93,0.00,CLR,,0.00,0.0,WeatherDisplay:10.37,2013-02-15 23:16:00,
2013-02-16 00:21:00,36.0,34.1,30.03,WNW,292,3.5,3.5,93,0.00,CLR,,0.00,0.0,WeatherDisplay:10.37,2013-02-15 23:21:00,
2013-02-16 00:26:00,36.0,34.4,30.09,WNW,292,2.9,2.9,94,0.00,CLR,,0.00,0.0,WeatherDisplay:10.37,2013-02-15 23:26:00,
2013-02-16 00:31:00,35.8,34.2,30.09,NNW,338,3.1,3.1,94,0.00,CLR,,0.00,0.0,WeatherDisplay:10.37,2013-02-15 23:31:00,
2013-02-16 00:36:00,35.8,34.2,30.09,North,0,2.9,2.9,94,0.00,CLR,,0.00,0.0,WeatherDisplay:10.37,2013-02-15 23:36:00,
2013-02-16 00:41:00,35.8,34.2,30.03,NW,315,2.3,2.3,94,0.00,CLR,,0.00,0.0,WeatherDisplay:10.37,2013-02-15 23:41:00,
2013-02-16 00:46:00,35.6,34.0,30.03,NNW,338,3.1,3.1,94,0.00,CLR,,0.00,0.0,WeatherDisplay:10.37,2013-02-15 23:46:00,
2013-02-16 00:51:00,35.6,34.0,30.03,WNW,292,3.5,3.5,94,0.00,CLR,,0.00,0.0,WeatherDisplay:10.37,2013-02-15 23:51:00,
2013-02-16 00:56:00,35.8,34.2,30.06,NW,315,3.5,3.5,94,0.00,CLR,,0.00,0.0,WeatherDisplay:10.37,2013-02-15 23:56:00,
2013-02-16 01:01:00,35.8,34.2,30.06,NNW,338,3.5,3.5,94,0.00,CLR,,0.00,0.0,WeatherDisplay:10.37,2013-02-16 00:01:00,
2013-02-16 01:06:00,35.8,34.2,30.06,WNW,292,3.5,3.5,94,0.00,CLR,,0.00,0.0,WeatherDisplay:10.37,2013-02-16 00:06:00,
2013-02-16 01:11:00,35.8,34.2,30.03,NNW,338,4.0,4.0,94,0.00,CLR,,0.00,0.0,WeatherDisplay:10.37,2013-02-16 00:11:00,
2013-02-16 01:16:00,35.8,34.2,30.03,NNW,338,3.5,3.5,94,0.00,CLR,,0.00,0.0,WeatherDisplay:10.37,2013-02-16 00:16:00,
2013-02-16 01:21:00,35.8,34.2,30.03,NNW,338,3.5,3.5,94,0.00,CLR,,0.00,0.0,WeatherDisplay:10.37,2013-02-16 00:21:00,
2013-02-16 01:26:00,35.6,34.3,30.03,NNE,22,3.5,3.5,95,0.00,CLR,,0.00,0.0,WeatherDisplay:10.37,2013-02-16 00:26:00,
2013-02-16 01:31:00,35.6,34.3,30.03,West,270,3.5,3.5,95,0.00,CLR,,0.00,0.0,WeatherDisplay:10.37,2013-02-16 00:31:00,
2013-02-16 01:36:00,35.6,34.0,30.03,WNW,292,3.1,3.1,94,0.00,CLR,,0.00,0.0,WeatherDisplay:10.37,2013-02-16 00:36:00,
2013-02-16 01:41:00,35.6,34.0,30.06,WNW,292,2.3,2.3,94,0.00,CLR,,0.00,0.0,WeatherDisplay:10.37,2013-02-16 00:41:00,
2013-02-16 01:46:00,35.6,34.0,30.06,WNW,292,3.5,3.5,94,0.00,CLR,,0.00,0.0,WeatherDisplay:10.37,2013-02-16 00:46:00,
2013-02-16 01:51:00,35.4,34.1,30.06,NNW,338,2.3,2.3,95,0.00,CLR,,0.00,0.0,WeatherDisplay:10.37,2013-02-16 00:51:00,
2013-02-16 01:56:00,35.4,34.1,30.06,NNW,338,2.4,2.4,95,0.00,CLR,,0.00,0.0,WeatherDisplay:10.37,2013-02-16 00:56:00,
2013-02-16 02:01:00,35.4,34.1,30.06,NW,315,3.5,3.5,95,0.00,CLR,,0.00,0.0,WeatherDisplay:10.37,2013-02-16 01:01:00,
2013-02-16 02:06:00,35.4,34.1,30.06,WNW,292,4.6,4.6,95,0.00,CLR,,0.00,0.0,WeatherDisplay:10.37,2013-02-16 01:06:00,
2013-02-16 02:11:00,35.2,34.0,30.06,WNW,292,2.4,2.4,95,0.00,CLR,,0.00,0.0,WeatherDisplay:10.37,2013-02-16 01:11:00,
2013-02-16 02:16:00,35.1,34.0,30.06,NNW,338,4.6,4.6,96,0.00,CLR,,0.00,0.0,WeatherDisplay:10.37,2013-02-16 01:16:00,
2013-02-16 02:21:00,35.1,34.0,30.06,WNW,292,3.5,3.5,96,0.00,CLR,,0.00,0.0,WeatherDisplay:10.37,2013-02-16 01:21:00,
2013-02-16 02:26:00,34.9,33.9,30.06,NNW,338,2.3,2.3,96,0.00,CLR,,0.00,0.0,WeatherDisplay:10.37,2013-02-16 01:26:00,
2013-02-16 02:31:00,34.9,33.9,30.06,North,0,3.5,3.5,96,0.00,CLR,,0.00,0.0,WeatherDisplay:10.37,2013-02-16 01:31:00,
2013-02-16 02:36:00,34.9,33.9,30.06,WNW,292,2.4,2.4,96,0.00,CLR,,0.00,0.0,WeatherDisplay:10.37,2013-02-16 01:36:00,
2013-02-16 02:41:00,34.9,33.9,30.06,NW,315,1.2,1.2,96,0.00,CLR,,0.00,0.0,WeatherDisplay:10.37,2013-02-16 01:41:00,
2013-02-16 02:46:00,34.9,33.9,30.06,NNW,338,2.4,2.4,96,0.00,CLR,,0.00,0.0,WeatherDisplay:10.37,2013-02-16 01:46:00,
2013-02-16 02:51:00,34.7,33.7,30.06,NNW,338,2.3,2.3,96,0.00,CLR,,0.00,0.0,WeatherDisplay:10.37,2013-02-16 01:51:00,
2013-02-16 02:56:00,34.7,33.7,30.06,NNW,338,3.1,3.1,96,0.00,CLR,,0.00,0.0,WeatherDisplay:10.37,2013-02-16 01:56:00,
2013-02-16 03:01:00,34.7,33.7,30.06,WNW,292,2.3,2.3,96,0.00,CLR,,0.00,0.0,WeatherDisplay:10.37,2013-02-16 02:01:00,
2013-02-16 03:06:00,34.7,33.7,30.06,NNW,338,2.6,2.6,96,0.00,CLR,,0.00,0.0,WeatherDisplay:10.37,2013-02-16 02:06:00,
2013-02-16 03:11:00,34.7,33.7,30.06,WSW,248,1.2,1.2,96,0.00,CLR,,0.00,0.0,WeatherDisplay:10.37,2013-02-16 02:11:00,
2013-02-16 03:16:00,34.5,33.5,30.06,NNE,22,1.6,1.6,96,0.00,CLR,,0.00,0.0,WeatherDisplay:10.37,2013-02-16 02:16:00,
2013-02-16 03:21:00,34.5,33.5,30.03,ENE,68,2.3,2.3,96,0.00,CLR,,0.00,0.0,WeatherDisplay:10.37,2013-02-16 02:21:00,
2013-02-16 03:26:00,34.5,33.5,30.03,NNW,338,1.2,0.0,96,0.00,CLR,,0.00,0.0,WeatherDisplay:10.37,2013-02-16 02:26:00,
2013-02-16 03:31:00,34.3,33.3,30.03,NNW,338,0.0,0.0,96,0.00,CLR,,0.00,0.0,WeatherDisplay:10.37,2013-02-16 02:31:00,
2013-02-16 03:36:00,34.3,33.3,30.03,NNW,338,0.0,0.0,96,0.00,CLR,,0.00,0.0,WeatherDisplay:10.37,2013-02-16 02:36:00,
2013-02-16 03:41:00,34.2,32.9,30.03,NNW,338,2.3,2.3,95,0.00,CLR,,0.00,0.0,WeatherDisplay:10.37,2013-02-16 02:41:00,
2013-02-16 03:46:00,34.3,33.1,30.03,NW,315,2.3,2.3,95,0.00,CLR,,0.00,0.0,WeatherDisplay:10.37,2013-02-16 02:46:00,
2013-02-16 03:51:00,34.3,33.3,30.03,NNW,338,2.3,2.3,96,0.00,CLR,,0.00,0.0,WeatherDisplay:10.37,2013-02-16 02:51:00,
2013-02-16 03:56:00,34.3,33.3,30.03,NNW,338,1.2,1.4,96,0.00,CLR,,0.00,0.0,WeatherDisplay:10.37,2013-02-16 02:56:00,
2013-02-16 04:01:00,34.3,33.3,30.03,NNE,22,1.2,0.0,96,0.00,CLR,,0.00,0.0,WeatherDisplay:10.37,2013-02-16 03:01:00,
2013-02-16 04:06:00,34.3,33.3,30.03,NNW,338,2.3,2.3,96,0.00,CLR,,0.00,0.0,WeatherDisplay:10.37,2013-02-16 03:06:00,
2013-02-16 04:11:00,34.3,33.3,30.03,WNW,292,2.6,2.6,96,0.00,CLR,,0.00,0.0,WeatherDisplay:10.37,2013-02-16 03:11:00,
2013-02-16 04:16:00,34.3,33.3,30.03,NNW,338,2.6,2.6,96,0.00,CLR,,0.00,0.0,WeatherDisplay:10.37,2013-02-16 03:16:00,
2013-02-16 04:21:00,34.3,33.3,30.06,WNW,292,2.3,0.0,96,0.00,CLR,,0.00,0.0,WeatherDisplay:10.37,2013-02-16 03:21:00,
2013-02-16 04:26:00,34.3,33.3,30.06,NW,315,3.5,3.5,96,0.00,CLR,,0.00,0.0,WeatherDisplay:10.37,2013-02-16 03:26:00,
2013-02-16 04:31:00,34.3,33.3,30.06,NNW,338,1.2,0.0,96,0.00,CLR,,0.00,0.0,WeatherDisplay:10.37,2013-02-16 03:31:00,
2013-02-16 04:36:00,34.3,33.3,30.06,NNW,338,0.0,0.0,96,0.00,CLR,,0.00,0.0,WeatherDisplay:10.37,2013-02-16 03:36:00,
2013-02-16 04:41:00,34.3,33.3,30.06,WSW,248,0.0,0.0,96,0.00,CLR,,0.00,0.0,WeatherDisplay:10.37,2013-02-16 03:41:00,
2013-02-16 04:46:00,34.3,33.3,30.06,WSW,248,1.2,0.0,96,0.00,CLR,,0.00,0.0,WeatherDisplay:10.37,2013-02-16 03:46:00,
2013-02-16 04:51:00,34.5,33.5,30.06,WNW,292,2.3,0.0,96,0.00,CLR,,0.00,0.0,WeatherDisplay:10.37,2013-02-16 03:51:00,
2013-02-16 04:56:00,34.5,33.5,30.06,West,270,1.2,0.0,96,0.00,CLR,,0.00,0.0,WeatherDisplay:10.37,2013-02-16 03:56:00,
2013-02-16 05:01:00,34.5,33.5,30.06,WSW,248,1.2,0.0,96,0.00,CLR,,0.00,0.0,WeatherDisplay:10.37,2013-02-16 04:01:00,
2013-02-16 05:06:00,34.3,33.3,30.06,NNW,338,2.3,2.3,96,0.00,CLR,,0.00,0.0,WeatherDisplay:10.37,2013-02-16 04:06:00,
2013-02-16 05:11:00,34.3,33.3,30.06,NW,315,1.2,1.2,96,0.00,CLR,,0.00,0.0,WeatherDisplay:10.37,2013-02-16 04:11:00,
2013-02-16 05:16:00,34.3,33.3,30.06,WNW,292,0.0,0.0,96,0.00,CLR,,0.00,0.0,WeatherDisplay:10.37,2013-02-16 04:16:00,
2013-02-16 05:21:00,34.2,33.1,30.06,WNW,292,0.0,0.0,96,0.00,CLR,,0.00,0.0,WeatherDisplay:10.37,2013-02-16 04:21:00,
2013-02-16 05:26:00,34.2,33.1,30.06,NW,315,0.0,0.0,96,0.00,CLR,,0.00,0.0,WeatherDisplay:10.37,2013-02-16 04:26:00,
2013-02-16 05:31:00,34.0,33.0,30.06,NW,315,0.0,0.0,96,0.00,CLR,,0.00,0.0,WeatherDisplay:10.37,2013-02-16 04:31:00,
2013-02-16 05:36:00,34.0,33.0,30.06,WNW,292,0.0,0.0,96,0.00,CLR,,0.00,0.0,WeatherDisplay:10.37,2013-02-16 04:36:00,
2013-02-16 05:41:00,34.2,33.1,30.06,NNW,338,1.4,0.0,96,0.00,CLR,,0.00,0.0,WeatherDisplay:10.37,2013-02-16 04:41:00,
2013-02-16 05:46:00,34.2,33.1,30.06,NNW,338,2.3,2.3,96,0.00,CLR,,0.00,0.0,WeatherDisplay:10.37,2013-02-16 04:46:00,
2013-02-16 05:51:00,34.0,33.0,30.06,ENE,68,2.3,0.0,96,0.00,CLR,,0.00,0.0,WeatherDisplay:10.37,2013-02-16 04:51:00,
2013-02-16 05:56:00,34.0,33.0,30.06,NW,315,1.2,0.0,96,0.00,CLR,,0.00,0.0,WeatherDisplay:10.37,2013-02-16 04:56:00,
2013-02-16 06:00:00,34.0,33.0,30.06,NNW,338,0.0,0.0,96,0.00,CLR,,0.00,0.0,WeatherDisplay:10.37,2013-02-16 05:00:00,
2013-02-16 06:05:00,34.0,33.0,30.06,NNW,338,2.4,2.4,96,0.00,CLR,,0.00,0.0,WeatherDisplay:10.37,2013-02-16 05:05:00,
2013-02-16 06:10:00,34.2,33.1,30.06,WSW,248,2.3,2.3,96,0.00,CLR,,0.00,0.0,WeatherDisplay:10.37,2013-02-16 05:10:00,
2013-02-16 06:15:00,34.3,33.3,30.06,WNW,292,2.4,2.4,96,0.00,CLR,,0.00,0.0,WeatherDisplay:10.37,2013-02-16 05:15:00,
2013-02-16 06:20:00,34.3,33.3,30.06,West,270,2.3,0.0,96,0.00,OVC,,0.00,0.0,WeatherDisplay:10.37,2013-02-16 05:20:00,
2013-02-16 06:23:00,34.3,33.3,30.06,NNW,338,1.2,0.0,96,0.00,OVC,,0.00,0.0,WeatherDisplay:10.37,2013-02-16 05:23:00,
2013-02-16 06:28:00,34.5,33.5,30.06,NNW,338,2.3,2.3,96,0.00,OVC,,0.00,0.0,WeatherDisplay:10.37,2013-02-16 05:28:00,
2013-02-16 06:33:00,34.5,33.5,30.06,NNW,338,1.2,0.0,96,0.00,OVC,,0.00,0.0,WeatherDisplay:10.37,2013-02-16 05:33:00,
2013-02-16 06:38:00,34.5,33.5,30.09,North,0,2.3,2.3,96,0.00,OVC,,0.00,0.0,WeatherDisplay:10.37,2013-02-16 05:38:00,
2013-02-16 06:43:00,34.5,33.5,30.09,WNW,292,2.3,2.9,96,0.00,OVC,,0.00,0.0,WeatherDisplay:10.37,2013-02-16 05:43:00,
2013-02-16 06:48:00,34.5,33.5,30.09,NW,315,3.5,3.5,96,0.00,OVC,,0.00,0.0,WeatherDisplay:10.37,2013-02-16 05:48:00,
2013-02-16 06:53:00,34.5,33.5,30.09,North,0,1.2,1.4,96,0.00,OVC,,0.00,0.0,WeatherDisplay:10.37,2013-02-16 05:53:00,
2013-02-16 06:58:00,34.5,33.5,30.09,WNW,292,2.9,2.9,96,0.00,OVC,,0.00,0.0,WeatherDisplay:10.37,2013-02-16 05:58:00,
2013-02-16 07:03:00,34.5,33.5,30.09,North,0,3.8,3.8,96,0.00,OVC,,0.00,0.0,WeatherDisplay:10.37,2013-02-16 06:03:00,
2013-02-16 07:08:00,34.5,33.5,30.09,NNW,338,2.3,2.3,96,0.00,OVC,,0.00,0.0,WeatherDisplay:10.37,2013-02-16 06:08:00,
2013-02-16 07:13:00,34.5,33.5,30.09,NNE,22,2.3,2.3,96,0.00,OVC,,0.00,0.0,WeatherDisplay:10.37,2013-02-16 06:13:00,
2013-02-16 07:18:00,34.5,33.5,30.09,NNW,338,2.3,2.3,96,0.00,OVC,,0.00,0.0,WeatherDisplay:10.37,2013-02-16 06:18:00,
2013-02-16 07:23:00,34.5,33.5,30.09,NW,315,2.3,2.3,96,0.00,OVC,,0.00,0.0,WeatherDisplay:10.37,2013-02-16 06:23:00,
2013-02-16 07:28:00,34.5,33.5,30.09,WNW,292,3.6,3.6,96,0.00,OVC,,0.00,0.0,WeatherDisplay:10.37,2013-02-16 06:28:00,
2013-02-16 07:33:00,34.5,33.5,30.09,NW,315,2.3,2.3,96,0.00,OVC,,0.00,0.0,WeatherDisplay:10.37,2013-02-16 06:33:00,
2013-02-16 07:38:00,34.5,33.5,30.12,NW,315,2.3,2.3,96,0.00,OVC,,0.00,0.0,WeatherDisplay:10.37,2013-02-16 06:38:00,
2013-02-16 07:43:00,34.5,33.5,30.12,NNE,22,3.5,3.5,96,0.00,OVC,,0.00,0.0,WeatherDisplay:10.37,2013-02-16 06:43:00,
2013-02-16 07:48:00,34.5,33.5,30.12,NNW,338,3.5,3.5,96,0.00,OVC,,0.00,0.0,WeatherDisplay:10.37,2013-02-16 06:48:00,
2013-02-16 07:53:00,34.7,33.7,30.03,NNW,338,3.5,3.5,96,0.00,OVC,,0.00,0.0,WeatherDisplay:10.37,2013-02-16 06:53:00,
2013-02-16 07:58:00,34.7,33.7,30.03,NNW,338,3.5,3.5,96,0.00,OVC,,0.00,0.0,WeatherDisplay:10.37,2013-02-16 06:58:00,
2013-02-16 08:03:00,34.5,33.5,30.03,NNW,338,4.6,4.6,96,0.00,OVC,,0.00,0.0,WeatherDisplay:10.37,2013-02-16 07:03:00,
2013-02-16 08:08:00,34.7,33.7,30.12,WNW,292,4.6,4.6,96,0.00,OVC,,0.00,0.0,WeatherDisplay:10.37,2013-02-16 07:08:00,
2013-02-16 08:13:00,34.9,33.9,30.12,WNW,292,2.9,2.9,96,0.00,OVC,,0.00,0.0,WeatherDisplay:10.37,2013-02-16 07:13:00,
2013-02-16 08:19:00,35.1,34.0,30.12,NW,315,3.5,3.5,96,0.00,OVC,,0.00,0.0,WeatherDisplay:10.37,2013-02-16 07:19:00,
2013-02-16 08:24:00,35.1,34.0,30.12,WNW,292,3.5,3.5,96,0.00,OVC,,0.00,0.0,WeatherDisplay:10.37,2013-02-16 07:24:00,
2013-02-16 08:29:00,35.4,34.4,30.12,North,0,3.5,3.5,96,0.00,OVC,,0.00,0.0,WeatherDisplay:10.37,2013-02-16 07:29:00,
2013-02-16 08:34:00,35.4,34.4,30.12,NNW,338,4.6,4.6,96,0.00,OVC,,0.00,0.0,WeatherDisplay:10.37,2013-02-16 07:34:00,
2013-02-16 08:39:00,35.4,34.4,30.12,NNW,338,5.8,5.8,96,0.00,OVC,,0.00,0.0,WeatherDisplay:10.37,2013-02-16 07:39:00,
2013-02-16 08:44:00,35.6,34.6,30.12,NNW,338,2.3,2.3,96,0.00,OVC,,0.00,0.0,WeatherDisplay:10.37,2013-02-16 07:44:00,
2013-02-16 08:49:00,36.0,34.9,30.12,NNW,338,3.5,3.5,96,0.00,OVC,,0.00,0.0,WeatherDisplay:10.37,2013-02-16 07:49:00,
2013-02-16 08:54:00,36.1,35.1,30.12,NNW,338,3.5,3.5,96,0.00,OVC,,0.00,0.0,WeatherDisplay:10.37,2013-02-16 07:54:00,
2013-02-16 08:59:00,36.3,35.3,30.12,WNW,292,2.9,2.9,96,0.00,OVC,,0.00,0.0,WeatherDisplay:10.37,2013-02-16 07:59:00,
2013-02-16 09:04:00,36.7,35.6,30.12,North,0,3.8,3.8,96,0.00,OVC,,0.00,0.0,WeatherDisplay:10.37,2013-02-16 08:04:00,
2013-02-16 09:09:00,36.9,35.8,30.12,North,0,3.5,3.5,96,0.00,OVC,,0.00,0.0,WeatherDisplay:10.37,2013-02-16 08:09:00,
2013-02-16 09:14:00,37.2,36.2,30.12,NW,315,4.9,4.9,96,0.00,OVC,,0.00,0.0,WeatherDisplay:10.37,2013-02-16 08:14:00,
2013-02-16 09:19:00,37.4,36.1,30.12,NNW,338,5.8,5.8,95,0.00,OVC,,0.00,0.0,WeatherDisplay:10.37,2013-02-16 08:19:00,
2013-02-16 09:24:00,37.2,35.9,30.12,NW,315,6.9,6.9,95,0.00,OVC,,0.00,0.0,WeatherDisplay:10.37,2013-02-16 08:24:00,
2013-02-16 09:29:00,37.4,35.6,30.12,NNW,338,5.8,5.8,93,0.00,OVC,,0.00,0.0,WeatherDisplay:10.37,2013-02-16 08:29:00,
2013-02-16 09:34:00,37.6,35.5,30.12,NW,315,5.9,5.9,92,0.00,OVC,,0.00,0.0,WeatherDisplay:10.37,2013-02-16 08:34:00,
2013-02-16 09:39:00,37.9,35.5,30.12,NNW,338,4.6,4.6,91,0.00,OVC,,0.00,0.0,WeatherDisplay:10.37,2013-02-16 08:39:00,
2013-02-16 09:44:00,38.1,35.7,30.12,NNW,338,2.9,2.9,91,0.00,OVC,,0.00,0.0,WeatherDisplay:10.37,2013-02-16 08:44:00,
2013-02-16 09:49:00,38.1,35.4,30.12,NNW,338,4.0,4.0,90,0.00,OVC,,0.00,0.0,WeatherDisplay:10.37,2013-02-16 08:49:00,
2013-02-16 09:54:00,37.9,34.7,30.12,WNW,292,8.1,8.1,88,0.00,OVC,,0.00,0.0,WeatherDisplay:10.37,2013-02-16 08:54:00,
2013-02-16 09:59:00,38.1,34.6,30.12,NW,315,4.6,4.6,87,0.00,OVC,,0.00,0.0,WeatherDisplay:10.37,2013-02-16 08:59:00,
2013-02-16 10:04:00,38.5,34.9,30.12,WNW,292,5.8,5.8,87,0.00,OVC,,0.00,0.0,WeatherDisplay:10.37,2013-02-16 09:04:00,
2013-02-16 10:09:00,38.8,35.0,30.15,NW,315,6.0,6.0,86,0.00,OVC,,0.00,0.0,WeatherDisplay:10.37,2013-02-16 09:09:00,
2013-02-16 10:14:00,39.2,35.1,30.15,NNW,338,4.6,4.6,85,0.00,OVC,,0.00,0.0,WeatherDisplay:10.37,2013-02-16 09:14:00,
2013-02-16 10:19:00,39.6,35.4,30.15,NW,315,4.6,4.6,85,0.00,OVC,,0.00,0.0,WeatherDisplay:10.37,2013-02-16 09:19:00,
2013-02-16 10:24:00,39.7,35.6,30.12,NNW,338,5.9,5.9,85,0.00,OVC,,0.00,0.0,WeatherDisplay:10.37,2013-02-16 09:24:00,
2013-02-16 10:29:00,39.7,34.7,30.12,NW,315,3.5,3.5,82,0.00,OVC,,0.00,0.0,WeatherDisplay:10.37,2013-02-16 09:29:00,
2013-02-16 10:34:00,39.6,34.2,30.12,WNW,292,4.6,4.6,81,0.00,OVC,,0.00,0.0,WeatherDisplay:10.37,2013-02-16 09:34:00,
2013-02-16 10:39:00,39.7,34.4,30.12,NNW,338,5.8,5.8,81,0.00,OVC,,0.00,0.0,WeatherDisplay:10.37,2013-02-16 09:39:00,
2013-02-16 10:44:00,40.5,35.1,30.12,West,270,6.9,6.9,81,0.00,OVC,,0.00,0.0,WeatherDisplay:10.37,2013-02-16 09:44:00,
2013-02-16 10:49:00,41.0,34.3,30.12,NNW,338,6.9,6.9,77,0.00,OVC,,0.00,0.0,WeatherDisplay:10.37,2013-02-16 09:49:00,
2013-02-16 10:54:00,41.2,34.5,30.09,WNW,292,3.5,3.5,77,0.00,OVC,,0.00,0.0,WeatherDisplay:10.37,2013-02-16 09:54:00,
2013-02-16 10:59:00,41.2,33.5,30.09,NNW,338,4.9,4.9,74,0.00,OVC,,0.00,0.0,WeatherDisplay:10.37,2013-02-16 09:59:00,
2013-02-16 11:04:00,41.0,32.7,30.09,NNW,338,4.6,4.6,72,0.00,OVC,,0.00,0.0,WeatherDisplay:10.37,2013-02-16 10:04:00,
2013-02-16 11:09:00,41.0,32.7,30.09,NNE,22,6.9,6.9,72,0.00,OVC,,0.00,0.0,WeatherDisplay:10.37,2013-02-16 10:09:00,
2013-02-16 11:14:00,41.2,32.8,30.09,WNW,292,4.6,4.6,72,0.00,OVC,,0.00,0.0,WeatherDisplay:10.37,2013-02-16 10:14:00,
2013-02-16 11:19:00,41.2,32.8,30.09,NW,315,3.5,3.5,72,0.00,OVC,,0.00,0.0,WeatherDisplay:10.37,2013-02-16 10:19:00,
2013-02-16 11:24:00,41.2,33.2,30.12,NNW,338,4.0,4.0,73,0.00,OVC,,0.00,0.0,WeatherDisplay:10.37,2013-02-16 10:24:00,
2013-02-16 11:29:00,41.2,33.2,30.12,WNW,292,3.5,3.5,73,0.00,OVC,,0.00,0.0,WeatherDisplay:10.37,2013-02-16 10:29:00,
2013-02-16 11:34:00,41.4,33.7,30.12,West,270,5.9,5.9,74,0.00,OVC,,0.00,0.0,WeatherDisplay:10.37,2013-02-16 10:34:00,
2013-02-16 11:39:00,41.7,34.0,30.15,WNW,292,3.5,3.5,74,0.00,OVC,,0.00,0.0,WeatherDisplay:10.37,2013-02-16 10:39:00,
2013-02-16 11:44:00,41.9,33.2,30.15,NNW,338,4.6,4.6,71,0.00,OVC,,0.00,0.0,WeatherDisplay:10.37,2013-02-16 10:44:00,
2013-02-16 11:49:00,42.1,33.7,30.15,WNW,292,4.6,4.6,72,0.00,OVC,,0.00,0.0,WeatherDisplay:10.37,2013-02-16 10:49:00,
2013-02-16 12:46:00,44.2,33.2,30.12,West,270,3.5,3.5,65,0.00,OVC,,0.00,0.0,WeatherDisplay:10.37,2013-02-16 11:46:00,
2013-02-16 12:51:00,44.2,34.0,30.12,WNW,292,3.3,3.3,67,0.00,OVC,,0.00,0.0,WeatherDisplay:10.37,2013-02-16 11:51:00,
2013-02-16 12:56:00,44.6,33.9,30.06,WNW,292,3.8,3.8,66,0.00,OVC,,0.00,0.0,WeatherDisplay:10.37,2013-02-16 11:56:00,
2013-02-16 13:01:00,44.8,34.1,30.06,SSW,202,5.8,5.8,66,0.00,OVC,,0.00,0.0,WeatherDisplay:10.37,2013-02-16 12:01:00,
2013-02-16 13:06:00,44.8,34.5,30.06,SSW,202,4.6,4.6,67,0.00,OVC,,0.00,0.0,WeatherDisplay:10.37,2013-02-16 12:06:00,
2013-02-16 13:11:00,44.6,32.0,30.09,NNW,338,8.1,8.1,61,0.00,OVC,,0.00,0.0,WeatherDisplay:10.37,2013-02-16 12:11:00,
2013-02-16 13:16:00,44.2,32.8,30.09,WSW,248,2.3,2.4,64,0.00,OVC,,0.00,0.0,WeatherDisplay:10.37,2013-02-16 12:16:00,
2013-02-16 13:21:00,44.1,32.7,30.09,WSW,248,5.8,5.8,64,0.00,OVC,,0.00,0.0,WeatherDisplay:10.37,2013-02-16 12:21:00,
2013-02-16 13:26:00,44.2,32.4,30.12,WNW,292,5.8,5.8,63,0.00,OVC,,0.00,0.0,WeatherDisplay:10.37,2013-02-16 12:26:00,
2013-02-16 13:31:00,44.4,33.4,30.12,WNW,292,6.2,6.2,65,0.00,OVC,,0.00,0.0,WeatherDisplay:10.37,2013-02-16 12:31:00,
2013-02-16 13:36:00,44.2,32.8,30.12,WNW,292,6.9,6.9,64,0.00,OVC,,0.00,0.0,WeatherDisplay:10.37,2013-02-16 12:36:00,
2013-02-16 13:41:00,44.2,32.8,30.09,WSW,248,4.6,4.6,64,0.00,OVC,,0.00,0.0,WeatherDisplay:10.37,2013-02-16 12:41:00,
2013-02-16 13:46:00,43.9,30.9,30.09,WNW,292,4.6,4.6,60,0.00,OVC,,0.00,0.0,WeatherDisplay:10.37,2013-02-16 12:46:00,
2013-02-16 13:51:00,44.1,32.7,30.09,WSW,248,5.8,5.8,64,0.00,OVC,,0.00,0.0,WeatherDisplay:10.37,2013-02-16 12:51:00,
2013-02-16 13:56:00,44.2,32.4,30.09,WNW,292,3.6,3.6,63,0.00,OVC,,0.00,0.0,WeatherDisplay:10.37,2013-02-16 12:56:00,
2013-02-16 14:01:00,44.2,30.4,30.09,SSE,158,4.6,4.6,58,0.00,OVC,,0.00,0.0,WeatherDisplay:10.37,2013-02-16 13:01:00,
2013-02-16 14:06:00,44.4,29.7,30.09,WNW,292,6.9,6.9,56,0.00,OVC,,0.00,0.0,WeatherDisplay:10.37,2013-02-16 13:06:00,
2013-02-16 14:11:00,45.0,31.5,30.09,WNW,292,6.9,6.9,59,0.00,OVC,,0.00,0.0,WeatherDisplay:10.37,2013-02-16 13:11:00,
2013-02-16 14:16:00,44.6,30.3,30.09,NW,315,5.8,5.8,57,0.00,OVC,,0.00,0.0,WeatherDisplay:10.37,2013-02-16 13:16:00,
2013-02-16 14:21:00,44.6,29.9,30.09,WSW,248,5.8,5.8,56,0.00,OVC,,0.00,0.0,WeatherDisplay:10.37,2013-02-16 13:21:00,
2013-02-16 14:26:00,45.0,30.6,30.09,NE,45,5.9,5.9,57,0.00,OVC,,0.00,0.0,WeatherDisplay:10.37,2013-02-16 13:26:00,
2013-02-16 14:31:00,44.4,29.7,30.09,WNW,292,5.8,5.8,56,0.00,OVC,,0.00,0.0,WeatherDisplay:10.37,2013-02-16 13:31:00,
2013-02-16 14:36:00,44.6,30.3,30.09,WNW,292,5.8,5.8,57,0.00,OVC,,0.00,0.0,WeatherDisplay:10.37,2013-02-16 13:36:00,
2013-02-16 14:41:00,44.8,31.3,30.09,WSW,248,4.6,4.6,59,0.00,OVC,,0.00,0.0,WeatherDisplay:10.37,2013-02-16 13:41:00,
2013-02-16 14:46:00,44.8,30.9,30.09,WNW,292,6.2,6.2,58,0.00,OVC,,0.00,0.0,WeatherDisplay:10.37,2013-02-16 13:46:00,
2013-02-16 14:51:00,44.6,30.7,30.09,WSW,248,5.8,5.8,58,0.00,OVC,,0.00,0.0,WeatherDisplay:10.37,2013-02-16 13:51:00,
2013-02-16 14:56:00,44.6,30.7,30.09,WNW,292,4.9,4.9,58,0.00,OVC,,0.00,0.0,WeatherDisplay:10.37,2013-02-16 13:56:00,
2013-02-16 15:01:00,44.4,30.1,30.09,NNW,338,6.9,6.9,57,0.00,OVC,,0.00,0.0,WeatherDisplay:10.37,2013-02-16 14:01:00,
2013-02-16 15:06:00,44.1,29.8,30.09,WNW,292,5.9,5.9,57,0.00,OVC,,0.00,0.0,WeatherDisplay:10.37,2013-02-16 14:06:00,
2013-02-16 15:11:00,44.1,28.9,30.09,WSW,248,6.9,6.9,55,0.00,OVC,,0.00,0.0,WeatherDisplay:10.37,2013-02-16 14:11:00,
2013-02-16 15:16:00,43.7,28.1,30.09,WNW,292,5.8,5.8,54,0.00,OVC,,0.00,0.0,WeatherDisplay:10.37,2013-02-16 14:16:00,
2013-02-16 15:21:00,43.5,29.3,30.09,WNW,292,6.4,6.4,57,0.00,OVC,,0.00,0.0,WeatherDisplay:10.37,2013-02-16 14:21:00,
2013-02-16 15:26:00,43.2,28.9,30.09,WNW,292,6.4,6.4,57,0.00,OVC,,0.00,0.0,WeatherDisplay:10.37,2013-02-16 14:26:00,
2013-02-16 15:31:00,43.2,29.4,30.09,West,270,8.1,8.1,58,0.00,OVC,,0.00,0.0,WeatherDisplay:10.37,2013-02-16 14:31:00,
2013-02-16 15:36:00,43.0,29.2,30.09,WSW,248,4.6,4.6,58,0.00,OVC,,0.00,0.0,WeatherDisplay:10.37,2013-02-16 14:36:00,
2013-02-16 15:41:00,42.8,29.5,30.09,WNW,292,3.5,3.5,59,0.00,OVC,,0.00,0.0,WeatherDisplay:10.37,2013-02-16 14:41:00,
2013-02-16 15:46:00,42.6,29.3,30.09,WNW,292,6.4,6.4,59,0.00,OVC,,0.00,0.0,WeatherDisplay:10.37,2013-02-16 14:46:00,
2013-02-16 15:51:00,42.4,29.1,30.09,NNW,338,6.9,6.9,59,0.00,OVC,,0.00,0.0,WeatherDisplay:10.37,2013-02-16 14:51:00,
2013-02-16 15:56:00,41.9,28.6,30.09,WSW,248,4.6,4.6,59,0.00,OVC,,0.00,0.0,WeatherDisplay:10.37,2013-02-16 14:56:00,
2013-02-16 16:01:00,41.7,28.4,30.09,WSW,248,8.5,8.5,59,0.00,OVC,,0.00,0.0,WeatherDisplay:10.37,2013-02-16 15:01:00,
2013-02-16 16:06:00,41.5,27.8,30.09,WSW,248,7.6,7.6,58,0.00,OVC,,0.00,0.0,WeatherDisplay:10.37,2013-02-16 15:06:00,
2013-02-16 16:11:00,41.4,28.5,30.09,West,270,4.9,4.9,60,0.00,OVC,,0.00,0.0,WeatherDisplay:10.37,2013-02-16 15:11:00,
2013-02-16 16:16:00,41.0,28.2,30.09,WNW,292,4.6,4.6,60,0.00,OVC,,0.00,0.0,WeatherDisplay:10.37,2013-02-16 15:16:00,
2013-02-16 16:21:00,40.8,28.8,30.09,WNW,292,5.8,5.8,62,0.00,OVC,,0.00,0.0,WeatherDisplay:10.37,2013-02-16 15:21:00,
2013-02-16 16:26:00,40.5,28.1,30.09,WNW,292,5.8,5.8,61,0.00,OVC,,0.00,0.0,WeatherDisplay:10.37,2013-02-16 15:26:00,
2013-02-16 16:31:00,40.3,27.9,30.09,NNW,338,3.5,3.5,61,0.00,OVC,,0.00,0.0,WeatherDisplay:10.37,2013-02-16 15:31:00,
2013-02-16 16:36:00,39.7,26.6,30.09,West,270,4.6,4.6,59,0.00,OVC,,0.00,0.0,WeatherDisplay:10.37,2013-02-16 15:36:00,
2013-02-16 16:41:00,39.4,27.0,30.09,West,270,4.6,4.6,61,0.00,OVC,,0.00,0.0,WeatherDisplay:10.37,2013-02-16 15:41:00,
2013-02-16 16:46:00,39.2,27.3,30.09,WNW,292,5.8,5.8,62,0.00,OVC,,0.00,0.0,WeatherDisplay:10.37,2013-02-16 15:46:00,
2013-02-16 16:51:00,38.8,27.3,30.09,WNW,292,3.5,3.5,63,0.00,OVC,,0.00,0.0,WeatherDisplay:10.37,2013-02-16 15:51:00,
2013-02-16 16:56:00,38.5,26.6,30.09,NNW,338,4.6,4.6,62,0.00,OVC,,0.00,0.0,WeatherDisplay:10.37,2013-02-16 15:56:00,
2013-02-16 17:01:00,38.3,26.8,30.09,NW,315,4.6,4.6,63,0.00,OVC,,0.00,0.0,WeatherDisplay:10.37,2013-02-16 16:01:00,
2013-02-16 17:06:00,37.9,26.8,30.12,WNW,292,4.6,4.6,64,0.00,OVC,,0.00,0.0,WeatherDisplay:10.37,2013-02-16 16:06:00,
2013-02-16 17:11:00,37.6,26.9,30.12,WNW,292,3.5,3.5,65,0.00,OVC,,0.00,0.0,WeatherDisplay:10.37,2013-02-16 16:11:00,
2013-02-16 17:16:00,37.4,27.1,30.12,WNW,292,3.1,3.1,66,0.00,OVC,,0.00,0.0,WeatherDisplay:10.37,2013-02-16 16:16:00,
2013-02-16 17:21:00,37.0,27.1,30.12,NW,315,4.6,4.6,67,0.00,OVC,,0.00,0.0,WeatherDisplay:10.37,2013-02-16 16:21:00,
2013-02-16 17:26:00,36.9,27.3,30.12,WSW,248,3.5,3.5,68,0.00,OVC,,0.00,0.0,WeatherDisplay:10.37,2013-02-16 16:26:00,
2013-02-16 17:31:00,36.7,27.5,30.12,NNW,338,4.6,4.6,69,0.00,OVC,,0.00,0.0,WeatherDisplay:10.37,2013-02-16 16:31:00,
2013-02-16 17:36:00,36.5,27.6,30.12,NNW,338,4.6,4.6,70,0.00,OVC,,0.00,0.0,WeatherDisplay:10.37,2013-02-16 16:36:00,
2013-02-16 17:41:00,36.1,27.3,30.12,NW,315,3.6,3.6,70,0.00,CLR,,0.00,0.0,WeatherDisplay:10.37,2013-02-16 16:41:00,
2013-02-16 17:46:00,36.1,27.6,30.12,NNW,338,3.5,3.5,71,0.00,CLR,,0.00,0.0,WeatherDisplay:10.37,2013-02-16 16:46:00,
2013-02-16 17:51:00,35.8,27.3,30.12,North,0,4.6,4.6,71,0.00,CLR,,0.00,0.0,WeatherDisplay:10.37,2013-02-16 16:51:00,
2013-02-16 17:56:00,35.8,27.6,30.12,WNW,292,4.6,4.6,72,0.00,CLR,,0.00,0.0,WeatherDisplay:10.37,2013-02-16 16:56:00,
2013-02-16 18:01:00,35.8,28.0,30.12,NW,315,3.5,3.5,73,0.00,CLR,,0.00,0.0,WeatherDisplay:10.37,2013-02-16 17:01:00,
2013-02-16 18:06:00,35.6,27.8,30.12,WNW,292,3.5,3.5,73,0.00,CLR,,0.00,0.0,WeatherDisplay:10.37,2013-02-16 17:06:00,
2013-02-16 18:11:00,35.4,27.6,30.12,NW,315,3.5,3.5,73,0.00,CLR,,0.00,0.0,WeatherDisplay:10.37,2013-02-16 17:11:00,
2013-02-16 18:16:00,35.1,27.6,30.12,NNW,338,3.1,3.1,74,0.00,CLR,,0.00,0.0,WeatherDisplay:10.37,2013-02-16 17:16:00,
2013-02-16 18:21:00,34.9,27.8,30.12,NNW,338,3.5,3.5,75,0.00,CLR,,0.00,0.0,WeatherDisplay:10.37,2013-02-16 17:21:00,
2013-02-16 18:26:00,34.7,27.6,30.12,NNW,338,3.5,3.5,75,0.00,CLR,,0.00,0.0,WeatherDisplay:10.37,2013-02-16 17:26:00,
2013-02-16 18:31:00,34.5,27.7,30.12,WNW,292,3.5,3.5,76,0.00,CLR,,0.00,0.0,WeatherDisplay:10.37,2013-02-16 17:31:00,
2013-02-16 18:36:00,34.5,27.7,30.12,WNW,292,3.5,3.6,76,0.00,CLR,,0.00,0.0,WeatherDisplay:10.37,2013-02-16 17:36:00,
2013-02-16 18:41:00,34.5,27.7,30.12,NNW,338,4.6,4.6,76,0.00,CLR,,0.00,0.0,WeatherDisplay:10.37,2013-02-16 17:41:00,
2013-02-16 18:46:00,34.3,27.6,30.12,NNW,338,3.5,3.5,76,0.00,CLR,,0.00,0.0,WeatherDisplay:10.37,2013-02-16 17:46:00,
2013-02-16 18:51:00,34.2,27.4,30.15,WNW,292,3.5,3.5,76,0.00,CLR,,0.00,0.0,WeatherDisplay:10.37,2013-02-16 17:51:00,
2013-02-16 18:56:00,34.0,27.2,30.15,NNW,338,3.5,3.5,76,0.00,CLR,,0.00,0.0,WeatherDisplay:10.37,2013-02-16 17:56:00,
2013-02-16 19:01:00,33.8,27.0,30.15,WNW,292,3.5,3.5,76,0.00,CLR,,0.00,0.0,WeatherDisplay:10.37,2013-02-16 18:01:00,
2013-02-16 19:06:00,33.8,27.4,30.06,WNW,292,2.6,2.6,77,0.00,CLR,,0.00,0.0,WeatherDisplay:10.37,2013-02-16 18:06:00,
2013-02-16 19:11:00,33.6,27.2,30.06,WNW,292,2.3,2.3,77,0.00,CLR,,0.00,0.0,WeatherDisplay:10.37,2013-02-16 18:11:00,
2013-02-16 19:16:00,33.3,26.8,30.06,WNW,292,2.3,2.3,77,0.00,CLR,,0.00,0.0,WeatherDisplay:10.37,2013-02-16 18:16:00,
2013-02-16 19:21:00,33.3,27.1,30.12,NNW,338,2.3,2.3,78,0.00,CLR,,0.00,0.0,WeatherDisplay:10.37,2013-02-16 18:21:00,
2013-02-16 19:26:00,33.1,27.0,30.12,WNW,292,2.3,2.3,78,0.00,CLR,,0.00,0.0,WeatherDisplay:10.37,2013-02-16 18:26:00,
2013-02-16 19:31:00,33.1,27.0,30.12,NNW,338,2.3,2.3,78,0.00,CLR,,0.00,0.0,WeatherDisplay:10.37,2013-02-16 18:31:00,
2013-02-16 19:36:00,32.7,26.6,30.12,NNW,338,2.3,2.3,78,0.00,CLR,,0.00,0.0,WeatherDisplay:10.37,2013-02-16 18:36:00,
2013-02-16 19:41:00,32.7,26.6,30.12,NNW,338,1.2,1.2,78,0.00,CLR,,0.00,0.0,WeatherDisplay:10.37,2013-02-16 18:41:00,
2013-02-16 19:46:00,32.5,26.4,30.12,NNW,338,2.3,2.3,78,0.00,CLR,,0.00,0.0,WeatherDisplay:10.37,2013-02-16 18:46:00,
2013-02-16 19:51:00,32.2,26.4,30.15,NNE,22,0.0,0.0,79,0.00,CLR,,0.00,0.0,WeatherDisplay:10.37,2013-02-16 18:51:00,
2013-02-16 19:56:00,32.2,26.4,30.15,NNE,22,2.3,2.3,79,0.00,CLR,,0.00,0.0,WeatherDisplay:10.37,2013-02-16 18:56:00,
2013-02-16 20:01:00,31.8,26.0,30.15,North,0,2.4,2.4,79,0.00,CLR,,0.00,0.0,WeatherDisplay:10.37,2013-02-16 19:01:00,
2013-02-16 20:06:00,31.8,26.0,30.15,WNW,292,2.3,2.3,79,0.00,CLR,,0.00,0.0,WeatherDisplay:10.37,2013-02-16 19:06:00,
2013-02-16 20:11:00,32.0,26.5,30.15,WNW,292,2.3,2.3,80,0.00,CLR,,0.00,0.0,WeatherDisplay:10.37,2013-02-16 19:11:00,
2013-02-16 20:16:00,31.8,26.4,30.15,North,0,2.3,2.3,80,0.00,CLR,,0.00,0.0,WeatherDisplay:10.37,2013-02-16 19:16:00,
2013-02-16 20:21:00,31.5,26.3,30.12,NNW,338,2.3,0.0,81,0.00,CLR,,0.00,0.0,WeatherDisplay:10.37,2013-02-16 19:21:00,
2013-02-16 20:26:00,31.3,26.1,30.12,NNW,338,2.3,2.3,81,0.00,CLR,,0.00,0.0,WeatherDisplay:10.37,2013-02-16 19:26:00,
2013-02-16 20:31:00,31.6,26.5,30.12,WNW,292,2.3,2.3,81,0.00,CLR,,0.00,0.0,WeatherDisplay:10.37,2013-02-16 19:31:00,
2013-02-16 20:36:00,31.6,26.8,30.12,NNW,338,2.3,2.3,82,0.00,CLR,,0.00,0.0,WeatherDisplay:10.37,2013-02-16 19:36:00,
2013-02-16 20:41:00,31.6,26.8,30.12,NNE,22,2.3,0.0,82,0.00,CLR,,0.00,0.0,WeatherDisplay:10.37,2013-02-16 19:41:00,
2013-02-16 20:46:00,31.5,26.6,30.12,NNW,338,1.2,0.0,82,0.00,CLR,,0.00,0.0,WeatherDisplay:10.37,2013-02-16 19:46:00,
2013-02-16 20:51:00,31.5,26.6,30.12,NNW,338,1.4,1.4,82,0.00,CLR,,0.00,0.0,WeatherDisplay:10.37,2013-02-16 19:51:00,
2013-02-16 20:56:00,31.1,26.2,30.15,NNW,338,1.2,0.0,82,0.00,CLR,,0.00,0.0,WeatherDisplay:10.37,2013-02-16 19:56:00,
2013-02-16 21:01:00,31.1,26.2,30.15,North,0,0.0,0.0,82,0.00,CLR,,0.00,0.0,WeatherDisplay:10.37,2013-02-16 20:01:00,
2013-02-16 21:06:00,30.6,25.7,30.09,ENE,68,0.0,0.0,82,0.00,CLR,,0.00,0.0,WeatherDisplay:10.37,2013-02-16 20:06:00,
2013-02-16 21:11:00,30.4,25.5,30.09,ENE,68,0.0,0.0,82,0.00,CLR,,0.00,0.0,WeatherDisplay:10.37,2013-02-16 20:11:00,
2013-02-16 21:16:00,30.2,25.7,30.09,ENE,68,0.0,0.0,83,0.00,CLR,,0.00,0.0,WeatherDisplay:10.37,2013-02-16 20:16:00,
2013-02-16 21:21:00,30.2,25.7,30.09,NE,45,0.0,0.0,83,0.00,CLR,,0.00,0.0,WeatherDisplay:10.37,2013-02-16 20:21:00,
2013-02-16 21:26:00,30.0,25.5,30.09,NE,45,0.0,0.0,83,0.00,CLR,,0.00,0.0,WeatherDisplay:10.37,2013-02-16 20:26:00,
2013-02-16 21:31:00,29.8,25.3,30.09,NE,45,0.0,0.0,83,0.00,CLR,,0.00,0.0,WeatherDisplay:10.37,2013-02-16 20:31:00,
2013-02-16 21:36:00,29.7,25.4,30.09,NE,45,0.0,0.0,84,0.00,CLR,,0.00,0.0,WeatherDisplay:10.37,2013-02-16 20:36:00,
2013-02-16 21:41:00,29.8,25.6,30.09,NE,45,0.0,0.0,84,0.00,CLR,,0.00,0.0,WeatherDisplay:10.37,2013-02-16 20:41:00,
2013-02-16 21:46:00,29.7,25.7,30.09,NW,315,0.0,0.0,85,0.00,CLR,,0.00,0.0,WeatherDisplay:10.37,2013-02-16 20:46:00,
2013-02-16 21:51:00,29.5,25.5,30.09,NW,315,0.0,0.0,85,0.00,CLR,,0.00,0.0,WeatherDisplay:10.37,2013-02-16 20:51:00,
2013-02-16 21:56:00,29.5,25.5,30.09,WNW,292,0.0,0.0,85,0.00,CLR,,0.00,0.0,WeatherDisplay:10.37,2013-02-16 20:56:00,
2013-02-16 22:01:00,29.3,25.4,30.09,NNE,22,0.0,0.0,85,0.00,CLR,,0.00,0.0,WeatherDisplay:10.37,2013-02-16 21:01:00,
2013-02-16 22:06:00,29.5,25.8,30.09,WNW,292,0.0,0.0,86,0.00,CLR,,0.00,0.0,WeatherDisplay:10.37,2013-02-16 21:06:00,
2013-02-16 22:11:00,29.5,25.8,30.09,NNW,338,0.0,0.0,86,0.00,CLR,,0.00,0.0,WeatherDisplay:10.37,2013-02-16 21:11:00,
2013-02-16 22:16:00,30.0,26.3,30.09,NNE,22,1.2,0.0,86,0.00,CLR,,0.00,0.0,WeatherDisplay:10.37,2013-02-16 21:16:00,
2013-02-16 22:21:00,30.0,26.6,30.09,NNE,22,0.0,0.0,87,0.00,CLR,,0.00,0.0,WeatherDisplay:10.37,2013-02-16 21:21:00,
2013-02-16 22:26:00,30.0,26.6,30.09,NW,315,0.0,0.0,87,0.00,CLR,,0.00,0.0,WeatherDisplay:10.37,2013-02-16 21:26:00,
2013-02-16 22:31:00,29.8,26.4,30.09,NNW,338,0.0,0.0,87,0.00,CLR,,0.00,0.0,WeatherDisplay:10.37,2013-02-16 21:31:00,
2013-02-16 22:36:00,30.2,26.8,30.09,WNW,292,0.0,0.0,87,0.00,CLR,,0.00,0.0,WeatherDisplay:10.37,2013-02-16 21:36:00,
2013-02-16 22:41:00,30.2,26.8,30.09,NNW,338,0.0,0.0,87,0.00,CLR,,0.00,0.0,WeatherDisplay:10.37,2013-02-16 21:41:00,
2013-02-16 22:46:00,30.0,26.9,30.09,NNW,338,0.0,0.0,88,0.00,CLR,,0.00,0.0,WeatherDisplay:10.37,2013-02-16 21:46:00,
2013-02-16 22:51:00,30.0,26.9,30.09,NNW,338,2.0,2.0,88,0.00,CLR,,0.00,0.0,WeatherDisplay:10.37,2013-02-16 21:51:00,
2013-02-16 22:56:00,30.4,27.3,30.09,NNW,338,2.3,2.3,88,0.00,CLR,,0.00,0.0,WeatherDisplay:10.37,2013-02-16 21:56:00,
2013-02-16 23:01:00,30.6,27.4,30.09,NNW,338,2.3,2.3,88,0.00,CLR,,0.00,0.0,WeatherDisplay:10.37,2013-02-16 22:01:00,
2013-02-16 23:06:00,30.4,27.3,30.09,NW,315,2.3,2.3,88,0.00,CLR,,0.00,0.0,WeatherDisplay:10.37,2013-02-16 22:06:00,
2013-02-16 23:11:00,30.6,27.4,30.09,WNW,292,0.0,0.0,88,0.00,CLR,,0.00,0.0,WeatherDisplay:10.37,2013-02-16 22:11:00,
2013-02-16 23:16:00,30.2,27.3,30.09,WNW,292,0.0,0.0,89,0.00,CLR,,0.00,0.0,WeatherDisplay:10.37,2013-02-16 22:16:00,
2013-02-16 23:21:00,30.2,27.1,30.12,ENE,68,2.4,0.0,88,0.00,CLR,,0.00,0.0,WeatherDisplay:10.37,2013-02-16 22:21:00,
2013-02-16 23:26:00,30.7,27.6,30.12,NNW,338,2.3,2.3,88,0.00,CLR,,0.00,0.0,WeatherDisplay:10.37,2013-02-16 22:26:00,
2013-02-16 23:31:00,30.7,27.9,30.12,NNW,338,0.0,0.0,89,0.00,CLR,,0.00,0.0,WeatherDisplay:10.37,2013-02-16 22:31:00,
2013-02-16 23:36:00,31.1,28.2,30.12,NNW,338,2.3,2.3,89,0.00,CLR,,0.00,0.0,WeatherDisplay:10.37,2013-02-16 22:36:00,
2013-02-16 23:41:00,30.9,28.3,30.12,NNW,338,1.2,1.4,90,0.00,CLR,,0.00,0.0,WeatherDisplay:10.37,2013-02-16 22:41:00,
2013-02-16 23:46:00,30.9,28.3,30.12,WNW,292,2.3,0.0,90,0.00,CLR,,0.00,0.0,WeatherDisplay:10.37,2013-02-16 22:46:00,
2013-02-16 23:51:00,30.6,28.0,30.12,WNW,292,2.3,2.3,90,0.00,CLR,,0.00,0.0,WeatherDisplay:10.37,2013-02-16 22:51:00,
2013-02-16 23:56:00,30.4,27.5,30.12,WNW,292,3.5,3.5,89,0.00,CLR,,0.00,0.0,WeatherDisplay:10.37,2013-02-16 22:56:00,